Terminal Aerodrome Forecast
Issued by NWS

Home | Current Version | Previous Version | Text Only | Print | Product List | Glossary On
Versions: 1 2 3 4 5 6 7 8 9 10 11 12 13 14 15 16
422
FTUS46 KSGX 311558 AAB
TAFSNA
TAF AMD
KSNA 311558Z 3116/0112 VRB05KT 4SM BR BKN007
     FM311730 VRB05KT P6SM SCT007
     FM311900 24009KT P6SM FEW007
     FM010200 VRB04KT P6SM SCT007
     FM010800 VRB03KT P6SM BKN005=

USA.gov is the U.S. government's official web portal to all federal, state and local government web resources and services.